Terminal Aerodrome Forecast
Issued by NWS Charleston, WV

Current Version | Previous Version | Graphics & Text | Print | Product List | Glossary On
Versions: 1 2 3 4 5 6 7 8 9 10 11 12 13 14 15 16 17 18 19 20
268
FTUS41 KRLX 251722
TAFHTS
TAF
KHTS 251722Z 2518/2618 VRB05KT P6SM SKC
     FM260700 00000KT 2SM BR SCT001
     FM260800 00000KT 1/2SM FG OVC001
     FM261300 00000KT 4SM BR SCT002
     FM261400 00000KT P6SM FEW040=

USA.gov is the U.S. government's official web portal to all federal, state and local government web resources and services.